Time;durP1;ratioP1;P1;durP2;ratioP2;P2;SDS_P1;SDS_P2;PMS_P1;PMS_P2;Temp;Humidity;BMP_temperature;BMP_pressure;BME280_temperature;BME280_humidity;BME280_pressure;Samples;Min_cycle;Max_cycle;Signal;HPM_P1;HPM_P2
2022/04/08 00:01:43;;;;;;;6.82;2.08;;;;;;;;;;5003981;28;20723;-70
2022/04/08 00:04:09;;;;;;;6.07;2.03;;;;;;;;;;5012021;28;20044;-70
2022/04/08 00:06:35;;;;;;;5.68;2.38;;;;;;;;;;5023508;28;20806;-70
2022/04/08 00:09:01;;;;;;;9.25;2.40;;;;;;;;;;5024752;28;20056;-70
2022/04/08 00:11:27;;;;;;;8.07;2.40;;;;;;;;;;5010474;28;20041;-70
2022/04/08 00:13:54;;;;;;;6.45;2.20;;;;;;;;;;5006912;28;20029;-70
2022/04/08 00:16:21;;;;;;;7.40;2.40;;;;;;;;;;5005495;28;20420;-70
2022/04/08 00:18:47;;;;;;;6.35;1.98;;;;;;;;;;5008350;28;20022;-70
2022/04/08 00:21:14;;;;;;;4.97;1.67;;;;;;;;;;5008038;28;20585;-70
2022/04/08 00:23:40;;;;;;;6.55;2.33;;;;;;;;;;5009343;28;20105;-70
2022/04/08 00:26:06;;;;;;;5.75;2.10;;;;;;;;;;5009451;28;20053;-70
2022/04/08 00:28:32;;;;;;;6.13;1.92;;;;;;;;;;5009285;28;20033;-70
2022/04/08 00:30:58;;;;;;;8.45;2.55;;;;;;;;;;5008045;28;20390;-69
2022/04/08 00:33:25;;;;;;;7.72;2.05;;;;;;;;;;5025946;28;20469;-70
2022/04/08 00:35:51;;;;;;;8.27;2.08;;;;;;;;;;5029114;28;20025;-70
2022/04/08 00:38:17;;;;;;;6.35;2.25;;;;;;;;;;5028939;28;20444;-70
2022/04/08 00:40:43;;;;;;;12.30;2.17;;;;;;;;;;5027457;28;20079;-70
2022/04/08 00:43:13;;;;;;;7.28;2.25;;;;;;;;;;5029355;28;20029;-70
2022/04/08 00:45:40;;;;;;;7.03;2.10;;;;;;;;;;5028832;28;20141;-69
2022/04/08 00:48:07;;;;;;;12.18;2.97;;;;;;;;;;5027618;28;20135;-70
2022/04/08 00:50:37;;;;;;;5.80;2.30;;;;;;;;;;5028707;28;20495;-70
2022/04/08 00:53:03;;;;;;;4.13;1.80;;;;;;;;;;5029358;28;20076;-69
2022/04/08 00:55:29;;;;;;;6.80;2.00;;;;;;;;;;5028436;28;20053;-69
2022/04/08 00:57:55;;;;;;;6.82;1.92;;;;;;;;;;5028673;28;20536;-70
2022/04/08 01:00:24;;;;;;;7.80;2.55;;;;;;;;;;5019135;28;20078;-69
2022/04/08 01:02:50;;;;;;;5.45;1.83;;;;;;;;;;5007735;28;20021;-69
2022/04/08 01:05:16;;;;;;;7.03;2.00;;;;;;;;;;5008562;28;20401;-70
2022/04/08 01:07:42;;;;;;;5.90;2.40;;;;;;;;;;5007259;28;20026;-70
2022/04/08 01:10:09;;;;;;;9.32;2.85;;;;;;;;;;5008815;28;20120;-70
2022/04/08 01:12:35;;;;;;;7.82;1.95;;;;;;;;;;5007350;28;20056;-70
2022/04/08 01:15:01;;;;;;;10.90;2.70;;;;;;;;;;5008345;28;20038;-70
2022/04/08 01:17:27;;;;;;;5.07;1.98;;;;;;;;;;5008826;28;20478;-70
2022/04/08 01:19:54;;;;;;;6.90;1.67;;;;;;;;;;5008379;28;20410;-69
2022/04/08 01:22:20;;;;;;;6.63;1.88;;;;;;;;;;5008708;28;20026;-70
2022/04/08 01:24:50;;;;;;;6.75;2.08;;;;;;;;;;5022375;28;20041;-70
2022/04/08 01:27:21;;;;;;;5.65;2.08;;;;;;;;;;5028056;28;20048;-69
2022/04/08 01:29:47;;;;;;;4.95;2.17;;;;;;;;;;5027989;28;20044;-70
2022/04/08 01:32:15;;;;;;;5.95;1.90;;;;;;;;;;5027935;28;20029;-70
2022/04/08 01:34:43;;;;;;;6.50;2.05;;;;;;;;;;5007592;28;20061;-70
2022/04/08 01:37:10;;;;;;;8.73;1.80;;;;;;;;;;5008510;28;20056;-69
2022/04/08 01:39:37;;;;;;;5.20;1.80;;;;;;;;;;5008583;28;20522;-70
2022/04/08 01:42:03;;;;;;;5.13;1.48;;;;;;;;;;5008200;28;20029;-70
2022/04/08 01:44:29;;;;;;;2.88;1.70;;;;;;;;;;5008112;28;20025;-70
2022/04/08 01:46:55;;;;;;;9.27;2.70;;;;;;;;;;5007781;28;20478;-70
2022/04/08 01:49:21;;;;;;;5.47;1.70;;;;;;;;;;5007659;28;20139;-70
2022/04/08 01:51:47;;;;;;;6.18;1.40;;;;;;;;;;5007956;28;20034;-70
2022/04/08 01:54:13;;;;;;;4.88;1.90;;;;;;;;;;5008208;28;20379;-70
2022/04/08 01:56:39;;;;;;;5.20;1.50;;;;;;;;;;5007855;28;20524;-69
2022/04/08 01:59:06;;;;;;;3.80;1.30;;;;;;;;;;5012643;28;20030;-70
2022/04/08 02:01:32;;;;;;;3.10;1.70;;;;;;;;;;5026306;28;20021;-70
2022/04/08 02:03:58;;;;;;;2.28;1.70;;;;;;;;;;5027359;28;20036;-70
2022/04/08 02:06:24;;;;;;;4.35;1.40;;;;;;;;;;5027247;28;20045;-70
2022/04/08 02:08:50;;;;;;;3.22;1.42;;;;;;;;;;5027193;28;20041;-70
2022/04/08 02:11:18;;;;;;;2.28;1.30;;;;;;;;;;5022756;28;20064;-70
2022/04/08 02:13:44;;;;;;;2.10;1.20;;;;;;;;;;5004924;28;20025;-70
2022/04/08 02:16:10;;;;;;;2.17;1.20;;;;;;;;;;5012262;28;20639;-70
2022/04/08 02:18:36;;;;;;;1.48;0.88;;;;;;;;;;5027373;28;20037;-69
2022/04/08 02:21:02;;;;;;;2.42;1.10;;;;;;;;;;5025516;28;20036;-70
2022/04/08 02:23:28;;;;;;;3.58;1.10;;;;;;;;;;5027066;28;20493;-70
2022/04/08 02:25:55;;;;;;;2.95;1.20;;;;;;;;;;5027095;28;20926;-70
2022/04/08 02:28:21;;;;;;;4.45;1.38;;;;;;;;;;5027322;28;20494;-70
2022/04/08 02:30:48;;;;;;;2.58;1.20;;;;;;;;;;5027089;28;20038;-70
2022/04/08 02:33:14;;;;;;;2.13;1.13;;;;;;;;;;5025547;28;20021;-70
2022/04/08 02:35:40;;;;;;;3.40;1.33;;;;;;;;;;5026907;28;20030;-69
2022/04/08 02:38:06;;;;;;;4.35;1.33;;;;;;;;;;5027356;28;20030;-70
2022/04/08 02:40:32;;;;;;;4.20;1.63;;;;;;;;;;5027226;28;20041;-70
2022/04/08 02:42:58;;;;;;;2.85;1.20;;;;;;;;;;5026031;28;20034;-70
2022/04/08 02:45:24;;;;;;;4.22;1.23;;;;;;;;;;5023575;28;20083;-70
2022/04/08 02:47:51;;;;;;;8.48;1.92;;;;;;;;;;5027162;28;20098;-70
2022/04/08 02:50:17;;;;;;;4.32;1.60;;;;;;;;;;5027073;28;20466;-70
2022/04/08 02:52:43;;;;;;;3.63;1.20;;;;;;;;;;5027087;28;20504;-70
2022/04/08 02:55:09;;;;;;;2.47;1.33;;;;;;;;;;5025551;28;20040;-70
2022/04/08 02:57:46;;;;;;;3.92;1.52;;;;;;;;;;5025131;28;20115;-70
2022/04/08 03:00:13;;;;;;;6.07;1.75;;;;;;;;;;5026774;28;20108;-70
2022/04/08 03:02:39;;;;;;;5.88;1.92;;;;;;;;;;5025252;28;20056;-70
2022/04/08 03:05:06;;;;;;;5.50;1.70;;;;;;;;;;5024883;28;20048;-70
2022/04/08 03:07:36;;;;;;;6.13;1.65;;;;;;;;;;5026568;28;20026;-69
2022/04/08 03:10:03;;;;;;;1.77;1.30;;;;;;;;;;5026281;28;20053;-70
2022/04/08 03:12:29;;;;;;;2.47;1.52;;;;;;;;;;5013689;28;20066;-70
2022/04/08 03:14:56;;;;;;;2.72;1.25;;;;;;;;;;5013219;28;20424;-70
2022/04/08 03:17:22;;;;;;;2.88;1.50;;;;;;;;;;5001144;28;20554;-71
2022/04/08 03:19:49;;;;;;;4.43;1.73;;;;;;;;;;5000248;28;20756;-71
2022/04/08 03:22:19;;;;;;;3.47;1.63;;;;;;;;;;4998144;28;20034;-70
2022/04/08 03:24:45;;;;;;;3.88;1.58;;;;;;;;;;4999636;28;20089;-70
2022/04/08 03:27:12;;;;;;;4.07;1.88;;;;;;;;;;4999371;28;20079;-70
2022/04/08 03:29:38;;;;;;;4.05;1.73;;;;;;;;;;4997794;28;20111;-69
2022/04/08 03:32:05;;;;;;;3.55;1.58;;;;;;;;;;4999659;28;20021;-70
2022/04/08 03:34:31;;;;;;;6.18;1.77;;;;;;;;;;4998238;28;20114;-70
2022/04/08 03:36:57;;;;;;;4.93;1.85;;;;;;;;;;4997029;28;20034;-70
2022/04/08 03:39:23;;;;;;;4.25;1.70;;;;;;;;;;5002433;28;20091;-70
2022/04/08 03:41:50;;;;;;;3.67;1.70;;;;;;;;;;5018927;28;20474;-70
2022/04/08 03:44:16;;;;;;;7.78;2.50;;;;;;;;;;5017706;28;20064;-70
2022/04/08 03:46:44;;;;;;;4.28;1.40;;;;;;;;;;5017472;28;20032;-70
2022/04/08 03:49:14;;;;;;;3.03;1.75;;;;;;;;;;4999328;28;20037;-70
2022/04/08 03:51:44;;;;;;;5.18;1.73;;;;;;;;;;4999733;28;20096;-70
2022/04/08 03:54:10;;;;;;;6.53;2.00;;;;;;;;;;5000055;28;20501;-70
2022/04/08 03:56:36;;;;;;;3.85;1.90;;;;;;;;;;5000660;28;20033;-71
2022/04/08 03:59:03;;;;;;;6.60;1.75;;;;;;;;;;5002737;28;20032;-70
2022/04/08 04:01:29;;;;;;;4.97;1.60;;;;;;;;;;5002715;28;20379;-70
2022/04/08 04:03:55;;;;;;;4.18;2.10;;;;;;;;;;5002773;28;20478;-70
2022/04/08 04:06:21;;;;;;;7.00;2.35;;;;;;;;;;5002452;28;20461;-76
2022/04/08 04:08:48;;;;;;;5.85;1.83;;;;;;;;;;5001284;28;20067;-71
2022/04/08 04:11:16;;;;;;;4.95;1.80;;;;;;;;;;5005685;28;20030;-70
2022/04/08 04:13:42;;;;;;;3.53;1.85;;;;;;;;;;5022449;28;20021;-70
2022/04/08 04:16:09;;;;;;;7.15;1.85;;;;;;;;;;5022129;28;20677;-70
2022/04/08 04:18:35;;;;;;;4.15;1.65;;;;;;;;;;5014974;28;20537;-70
2022/04/08 04:21:01;;;;;;;4.68;1.90;;;;;;;;;;5005182;28;20337;-70
2022/04/08 04:23:27;;;;;;;4.95;1.85;;;;;;;;;;5004677;28;20022;-69
2022/04/08 04:25:54;;;;;;;6.13;1.70;;;;;;;;;;5003967;28;20765;-70
2022/04/08 04:28:20;;;;;;;4.82;1.80;;;;;;;;;;5003850;28;20667;-70
2022/04/08 04:30:46;;;;;;;6.90;1.52;;;;;;;;;;5004828;28;20045;-70
2022/04/08 04:33:12;;;;;;;6.25;1.73;;;;;;;;;;5003246;28;20022;-70
2022/04/08 04:35:39;;;;;;;6.47;1.80;;;;;;;;;;5004458;28;20076;-70
2022/04/08 04:38:06;;;;;;;3.67;1.75;;;;;;;;;;5004208;28;20363;-70
2022/04/08 04:40:32;;;;;;;3.45;1.40;;;;;;;;;;5013221;28;20108;-70
2022/04/08 04:42:58;;;;;;;4.22;1.40;;;;;;;;;;5022250;28;20433;-77
2022/04/08 04:45:25;;;;;;;4.78;1.83;;;;;;;;;;5022064;28;20033;-70
2022/04/08 04:47:51;;;;;;;4.60;1.95;;;;;;;;;;5022208;28;20021;-70
2022/04/08 04:50:17;;;;;;;3.67;1.45;;;;;;;;;;5020071;28;20053;-70
2022/04/08 04:52:43;;;;;;;6.93;1.75;;;;;;;;;;5020493;28;20039;-70
2022/04/08 04:55:10;;;;;;;7.00;2.15;;;;;;;;;;5021626;28;20040;-70
2022/04/08 04:57:36;;;;;;;5.47;2.20;;;;;;;;;;5021763;28;20029;-70
2022/04/08 05:00:05;;;;;;;4.57;1.70;;;;;;;;;;5019634;28;20373;-70
2022/04/08 05:02:32;;;;;;;5.45;1.50;;;;;;;;;;5001745;28;20041;-70
2022/04/08 05:04:58;;;;;;;2.95;1.50;;;;;;;;;;5001081;28;20276;-70
2022/04/08 05:07:25;;;;;;;3.30;1.77;;;;;;;;;;4998070;28;20490;-70
2022/04/08 05:09:51;;;;;;;5.22;1.85;;;;;;;;;;5000268;28;20121;-70
2022/04/08 05:12:17;;;;;;;3.88;1.67;;;;;;;;;;5000014;28;20065;-70
2022/04/08 05:14:43;;;;;;;3.55;1.85;;;;;;;;;;4998325;28;20141;-70
2022/04/08 05:17:10;;;;;;;6.07;1.73;;;;;;;;;;4999437;28;20028;-70
2022/04/08 05:19:36;;;;;;;5.32;1.63;;;;;;;;;;4999979;28;20021;-71
2022/04/08 05:22:02;;;;;;;4.97;1.70;;;;;;;;;;5001883;28;20045;-70
2022/04/08 05:24:28;;;;;;;4.43;1.95;;;;;;;;;;5000987;28;20489;-70
2022/04/08 05:26:54;;;;;;;5.88;1.83;;;;;;;;;;5001218;28;20868;-70
2022/04/08 05:29:20;;;;;;;7.28;1.90;;;;;;;;;;4999343;28;20049;-70
2022/04/08 05:31:47;;;;;;;5.78;2.13;;;;;;;;;;5002440;28;20619;-70
2022/04/08 05:34:13;;;;;;;4.13;1.48;;;;;;;;;;5000971;28;20030;-70
2022/04/08 05:36:39;;;;;;;5.15;2.05;;;;;;;;;;5001921;28;20049;-70
2022/04/08 05:39:06;;;;;;;2.85;1.90;;;;;;;;;;5000723;28;20496;-70
2022/04/08 05:41:32;;;;;;;6.07;2.13;;;;;;;;;;4999875;28;20479;-70
2022/04/08 05:43:58;;;;;;;5.07;1.90;;;;;;;;;;5000059;28;20037;-71
2022/04/08 05:46:24;;;;;;;5.72;2.30;;;;;;;;;;5000580;28;20034;-71
2022/04/08 05:48:50;;;;;;;5.25;1.80;;;;;;;;;;4998846;28;20022;-70
2022/04/08 05:51:16;;;;;;;4.63;1.70;;;;;;;;;;5001236;28;20034;-70
2022/04/08 05:53:42;;;;;;;4.20;1.83;;;;;;;;;;5000722;28;20414;-70
2022/04/08 05:56:08;;;;;;;5.50;2.17;;;;;;;;;;5000524;28;20022;-70
2022/04/08 05:58:35;;;;;;;3.47;1.80;;;;;;;;;;5005334;28;20029;-71
2022/04/08 06:01:01;;;;;;;2.97;1.90;;;;;;;;;;5020723;28;20028;-70
2022/04/08 06:03:27;;;;;;;7.55;2.28;;;;;;;;;;5019977;28;20034;-70
2022/04/08 06:05:54;;;;;;;4.97;2.15;;;;;;;;;;5020412;28;20277;-70
2022/04/08 06:08:20;;;;;;;5.70;1.83;;;;;;;;;;5020754;28;20159;-70
2022/04/08 06:10:46;;;;;;;4.95;1.83;;;;;;;;;;5019363;28;20643;-70
2022/04/08 06:13:13;;;;;;;6.05;2.05;;;;;;;;;;5020295;28;20029;-68
2022/04/08 06:15:39;;;;;;;4.75;2.30;;;;;;;;;;5002856;28;20374;-68
2022/04/08 06:18:05;;;;;;;3.90;2.05;;;;;;;;;;5003885;28;20065;-74
2022/04/08 06:20:32;;;;;;;3.00;1.70;;;;;;;;;;5011891;28;20116;-73
2022/04/08 06:22:58;;;;;;;6.70;2.20;;;;;;;;;;5017453;28;20084;-73
2022/04/08 06:25:25;;;;;;;4.30;1.88;;;;;;;;;;5015342;28;20033;-72
2022/04/08 06:28:04;;;;;;;6.55;2.30;;;;;;;;;;5007097;28;20026;-72
2022/04/08 06:30:31;;;;;;;5.50;2.00;;;;;;;;;;4999198;28;20054;-73
2022/04/08 06:32:57;;;;;;;3.13;2.08;;;;;;;;;;5001176;28;20021;-71
2022/04/08 06:35:24;;;;;;;4.10;1.92;;;;;;;;;;4997344;28;20101;-79
2022/04/08 06:37:50;;;;;;;3.70;1.90;;;;;;;;;;5002459;28;20030;-78
2022/04/08 06:40:16;;;;;;;4.97;2.17;;;;;;;;;;5012135;28;20029;-78
2022/04/08 06:42:42;;;;;;;3.88;1.60;;;;;;;;;;5003521;28;20057;-75
2022/04/08 06:45:09;;;;;;;3.13;1.83;;;;;;;;;;5012785;28;20276;-75
2022/04/08 06:47:44;;;;;;;4.75;2.08;;;;;;;;;;5005598;28;20033;-72
2022/04/08 06:50:10;;;;;;;7.45;2.30;;;;;;;;;;5006876;28;20037;-72
2022/04/08 06:52:36;;;;;;;7.40;2.47;;;;;;;;;;5001896;28;20029;-72
2022/04/08 06:55:03;;;;;;;4.60;1.92;;;;;;;;;;5007560;28;20631;-75
2022/04/08 06:57:29;;;;;;;3.22;2.00;;;;;;;;;;5015792;28;20034;-74
2022/04/08 06:59:55;;;;;;;4.80;2.10;;;;;;;;;;5002180;28;20021;-76
2022/04/08 07:02:21;;;;;;;3.97;1.90;;;;;;;;;;4998325;28;20036;-72
2022/04/08 07:04:48;;;;;;;4.18;1.92;;;;;;;;;;4998896;28;20522;-72
2022/04/08 07:07:14;;;;;;;4.05;2.13;;;;;;;;;;4999576;28;20116;-72
2022/04/08 07:09:40;;;;;;;6.20;1.73;;;;;;;;;;5000546;28;20367;-74
2022/04/08 07:12:07;;;;;;;2.38;1.70;;;;;;;;;;5002017;28;20747;-70
2022/04/08 07:14:33;;;;;;;6.35;1.85;;;;;;;;;;5014906;28;20515;-72
2022/04/08 07:16:59;;;;;;;3.97;1.60;;;;;;;;;;5018206;28;20030;-72
2022/04/08 07:19:25;;;;;;;3.25;1.63;;;;;;;;;;5011784;28;20038;-72
2022/04/08 07:21:51;;;;;;;4.20;1.85;;;;;;;;;;5004369;28;20124;-72
2022/04/08 07:24:18;;;;;;;5.63;2.08;;;;;;;;;;4999043;28;20033;-72
2022/04/08 07:26:44;;;;;;;3.95;1.90;;;;;;;;;;5013537;28;20280;-83
2022/04/08 07:29:11;;;;;;;5.88;2.35;;;;;;;;;;5008643;28;20029;-72
2022/04/08 07:31:37;;;;;;;4.57;2.17;;;;;;;;;;5011895;28;20525;-72
2022/04/08 07:34:04;;;;;;;7.40;2.13;;;;;;;;;;5012628;28;20033;-72
2022/04/08 07:36:30;;;;;;;4.22;1.80;;;;;;;;;;5008225;28;20029;-71
2022/04/08 07:38:56;;;;;;;4.47;2.22;;;;;;;;;;5022303;28;20021;-72
2022/04/08 07:41:22;;;;;;;6.53;2.42;;;;;;;;;;5013179;28;20033;-72
2022/04/08 07:43:50;;;;;;;5.47;2.25;;;;;;;;;;5015710;28;20025;-73
2022/04/08 07:46:16;;;;;;;7.85;2.05;;;;;;;;;;5022484;28;20030;-72
2022/04/08 07:48:42;;;;;;;4.72;2.63;;;;;;;;;;5020457;28;20132;-69
2022/04/08 07:51:08;;;;;;;4.97;2.17;;;;;;;;;;5020764;28;20030;-71
2022/04/08 07:53:34;;;;;;;6.03;2.05;;;;;;;;;;5012286;28;20022;-70
2022/04/08 07:56:00;;;;;;;5.88;2.17;;;;;;;;;;5015558;28;20026;-71
2022/04/08 07:58:27;;;;;;;4.07;2.20;;;;;;;;;;5022576;28;20680;-72
2022/04/08 08:00:54;;;;;;;7.25;2.00;;;;;;;;;;5021295;28;20032;-75
2022/04/08 08:03:20;;;;;;;8.85;2.13;;;;;;;;;;5020647;28;20508;-71
2022/04/08 08:05:47;;;;;;;4.72;2.05;;;;;;;;;;5003445;28;20050;-71
2022/04/08 08:08:13;;;;;;;4.72;2.10;;;;;;;;;;5003508;28;20026;-71
2022/04/08 08:10:40;;;;;;;5.00;2.08;;;;;;;;;;5022010;28;20152;-75
2022/04/08 08:13:06;;;;;;;5.60;2.42;;;;;;;;;;5020961;28;20021;-72
2022/04/08 08:15:33;;;;;;;5.80;2.35;;;;;;;;;;5021166;28;20029;-73
2022/04/08 08:17:59;;;;;;;6.50;2.40;;;;;;;;;;5020047;28;20091;-72
2022/04/08 08:20:25;;;;;;;4.05;2.28;;;;;;;;;;5001879;28;20036;-72
2022/04/08 08:22:52;;;;;;;4.78;2.17;;;;;;;;;;5002335;28;20068;-72
2022/04/08 08:25:19;;;;;;;5.03;2.08;;;;;;;;;;5001921;28;20065;-79
2022/04/08 08:27:46;;;;;;;4.60;2.13;;;;;;;;;;5000332;28;20138;-72
2022/04/08 08:30:13;;;;;;;6.60;2.53;;;;;;;;;;5002116;28;20038;-72
2022/04/08 08:32:40;;;;;;;6.70;3.42;;;;;;;;;;5001939;28;20040;-74
2022/04/08 08:35:10;;;;;;;5.68;2.30;;;;;;;;;;5000943;28;20076;-73
2022/04/08 08:37:36;;;;;;;6.90;2.15;;;;;;;;;;5001701;28;20030;-80
2022/04/08 08:40:03;;;;;;;6.38;2.42;;;;;;;;;;5000863;28;20026;-75
2022/04/08 08:42:30;;;;;;;4.28;2.00;;;;;;;;;;5000965;28;20040;-70
2022/04/08 08:44:56;;;;;;;4.03;2.67;;;;;;;;;;5002251;28;20028;-72
2022/04/08 08:47:22;;;;;;;5.72;2.28;;;;;;;;;;5017249;28;20021;-72
2022/04/08 08:49:50;;;;;;;5.32;2.60;;;;;;;;;;5019408;28;20141;-80
2022/04/08 08:52:18;;;;;;;4.15;1.80;;;;;;;;;;5020516;28;20045;-73
2022/04/08 08:54:45;;;;;;;5.75;2.30;;;;;;;;;;5016965;28;20044;-72
2022/04/08 08:57:12;;;;;;;4.53;2.15;;;;;;;;;;5012609;28;20021;-72
2022/04/08 08:59:38;;;;;;;2.53;2.08;;;;;;;;;;5012749;28;20106;-73
2022/04/08 09:02:04;;;;;;;4.05;2.22;;;;;;;;;;5004867;28;20021;-73
2022/04/08 09:04:31;;;;;;;4.43;1.95;;;;;;;;;;5015582;28;20505;-74
2022/04/08 09:06:57;;;;;;;6.50;2.40;;;;;;;;;;5003407;28;20041;-74
2022/04/08 09:09:30;;;;;;;4.10;2.40;;;;;;;;;;5021064;28;20095;-77
2022/04/08 09:12:17;;;;;;;5.45;2.10;;;;;;;;;;5018350;28;20137;-72
2022/04/08 09:14:53;;;;;;;2.72;1.88;;;;;;;;;;5017581;28;20087;-73
2022/04/08 09:17:20;;;;;;;4.35;2.10;;;;;;;;;;5020206;28;20040;-72
2022/04/08 09:19:49;;;;;;;5.72;2.70;;;;;;;;;;5017290;28;20038;-76
2022/04/08 09:22:16;;;;;;;4.65;2.65;;;;;;;;;;5015337;28;20175;-73
2022/04/08 09:24:43;;;;;;;4.50;2.08;;;;;;;;;;5010512;28;20021;-73
2022/04/08 09:27:10;;;;;;;5.53;2.45;;;;;;;;;;5012183;28;20053;-85
2022/04/08 09:29:36;;;;;;;3.60;2.20;;;;;;;;;;5001278;28;20655;-73
2022/04/08 09:32:09;;;;;;;3.53;2.00;;;;;;;;;;5014866;28;20033;-72
2022/04/08 09:34:35;;;;;;;3.05;1.80;;;;;;;;;;5020414;28;20025;-71
2022/04/08 09:37:11;;;;;;;3.17;1.88;;;;;;;;;;5017171;28;20025;-70
2022/04/08 09:39:38;;;;;;;4.13;2.10;;;;;;;;;;5011058;28;20030;-71
2022/04/08 09:42:06;;;;;;;5.10;2.35;;;;;;;;;;5003000;28;20136;-74
2022/04/08 09:44:35;;;;;;;3.05;2.03;;;;;;;;;;5006863;28;20030;-72
2022/04/08 09:47:02;;;;;;;4.72;2.55;;;;;;;;;;5002566;28;20025;-73
2022/04/08 09:49:28;;;;;;;5.97;2.22;;;;;;;;;;5000494;28;20037;-72
2022/04/08 09:51:55;;;;;;;4.38;2.58;;;;;;;;;;5018743;28;20029;-71
2022/04/08 09:54:22;;;;;;;8.98;2.33;;;;;;;;;;5019687;28;20037;-72
2022/04/08 09:56:48;;;;;;;3.67;2.20;;;;;;;;;;5020232;28;20104;-72
2022/04/08 09:59:21;;;;;;;6.60;2.80;;;;;;;;;;5020342;28;20462;-72
2022/04/08 10:01:47;;;;;;;3.35;2.40;;;;;;;;;;5019549;28;20029;-78
2022/04/08 10:04:14;;;;;;;5.32;2.53;;;;;;;;;;5009321;28;20057;-72
2022/04/08 10:06:41;;;;;;;3.80;2.70;;;;;;;;;;5006250;28;20045;-72
2022/04/08 10:09:10;;;;;;;5.13;2.60;;;;;;;;;;5010093;28;20053;-72
2022/04/08 10:11:54;;;;;;;6.20;2.63;;;;;;;;;;5009387;28;20424;-72
2022/04/08 10:14:31;;;;;;;4.82;2.55;;;;;;;;;;5009471;28;20104;-71
2022/04/08 10:16:57;;;;;;;5.38;2.90;;;;;;;;;;5007155;28;20041;-75
2022/04/08 10:19:24;;;;;;;6.68;2.85;;;;;;;;;;5006104;28;20048;-72
2022/04/08 10:21:54;;;;;;;5.57;2.85;;;;;;;;;;5010048;28;20029;-76
2022/04/08 10:24:24;;;;;;;6.15;2.90;;;;;;;;;;5004360;28;20025;-72
2022/04/08 10:27:01;;;;;;;4.70;2.35;;;;;;;;;;5005678;28;20587;-72
2022/04/08 10:29:28;;;;;;;6.40;3.45;;;;;;;;;;5007617;28;20039;-72
2022/04/08 10:32:05;;;;;;;5.95;3.10;;;;;;;;;;5006329;28;20390;-72
2022/04/08 10:34:32;;;;;;;4.20;2.70;;;;;;;;;;5008281;28;20029;-72
2022/04/08 10:37:01;;;;;;;5.50;3.08;;;;;;;;;;5001292;28;20053;-76
2022/04/08 10:39:28;;;;;;;3.25;2.70;;;;;;;;;;5008004;28;20030;-74
2022/04/08 10:41:59;;;;;;;7.07;3.40;;;;;;;;;;5006082;28;20025;-71
2022/04/08 10:44:35;;;;;;;6.05;3.47;;;;;;;;;;5003152;28;20414;-70
2022/04/08 10:47:04;;;;;;;6.40;2.80;;;;;;;;;;5007677;28;20064;-70
2022/04/08 10:49:31;;;;;;;6.68;3.00;;;;;;;;;;5001572;28;20033;-69
2022/04/08 10:51:57;;;;;;;5.00;2.95;;;;;;;;;;5006464;28;20490;-69
2022/04/08 10:54:34;;;;;;;8.13;2.90;;;;;;;;;;5004583;28;20045;-73
2022/04/08 10:57:00;;;;;;;4.55;2.80;;;;;;;;;;5007583;28;20030;-69
2022/04/08 10:59:27;;;;;;;6.30;2.78;;;;;;;;;;5007947;28;20067;-69
2022/04/08 11:01:58;;;;;;;10.60;3.38;;;;;;;;;;5006179;28;20025;-69
2022/04/08 11:04:27;;;;;;;9.18;3.42;;;;;;;;;;5004818;28;20717;-69
2022/04/08 11:06:53;;;;;;;10.07;3.30;;;;;;;;;;5007327;28;20077;-71
2022/04/08 11:09:20;;;;;;;6.88;3.40;;;;;;;;;;5007154;28;20048;-69
2022/04/08 11:11:52;;;;;;;5.90;3.15;;;;;;;;;;5008980;28;20028;-69
2022/04/08 11:14:18;;;;;;;;;;;;;;;;;;5009935;28;20060;-76
2022/04/08 11:16:44;;;;;;;8.52;3.05;;;;;;;;;;5012139;28;20382;-70
2022/04/08 11:19:11;;;;;;;11.63;4.22;;;;;;;;;;5014730;28;20041;-69
2022/04/08 11:21:38;;;;;;;8.65;3.10;;;;;;;;;;5012796;28;20621;-69
2022/04/08 11:24:05;;;;;;;10.25;4.10;;;;;;;;;;5005700;28;20037;-69
2022/04/08 11:26:40;;;;;;;10.35;2.70;;;;;;;;;;5013408;28;20136;-70
2022/04/08 11:29:11;;;;;;;5.72;2.50;;;;;;;;;;5008858;28;20026;-69
2022/04/08 11:31:38;;;;;;;6.13;3.13;;;;;;;;;;5009036;28;20129;-70
2022/04/08 11:34:05;;;;;;;5.95;2.80;;;;;;;;;;5006190;28;20104;-69
2022/04/08 11:36:31;;;;;;;6.03;2.55;;;;;;;;;;5010407;28;20054;-69
2022/04/08 11:38:57;;;;;;;5.35;2.60;;;;;;;;;;5009526;28;20029;-70
2022/04/08 11:41:25;;;;;;;10.38;3.30;;;;;;;;;;5007790;28;20482;-69
2022/04/08 11:43:52;;;;;;;4.90;2.63;;;;;;;;;;5006961;28;20049;-69
2022/04/08 11:46:18;;;;;;;6.75;2.83;;;;;;;;;;5008889;28;20033;-69
2022/04/08 11:48:45;;;;;;;8.30;2.97;;;;;;;;;;5003505;28;20663;-74
2022/04/08 11:51:11;;;;;;;9.75;3.22;;;;;;;;;;5012146;28;20588;-69
2022/04/08 11:53:44;;;;;;;11.95;3.35;;;;;;;;;;5010302;28;20599;-69
2022/04/08 11:56:11;;;;;;;5.22;2.58;;;;;;;;;;5010345;28;20484;-69
2022/04/08 11:58:37;;;;;;;10.57;2.90;;;;;;;;;;5006430;28;20030;-70
2022/04/08 12:01:05;;;;;;;6.50;3.45;;;;;;;;;;5013325;28;20505;-69
2022/04/08 12:03:34;;;;;;;11.40;2.70;;;;;;;;;;5012044;28;20417;-70
2022/04/08 12:06:01;;;;;;;5.93;2.80;;;;;;;;;;5012050;28;20168;-70
2022/04/08 12:08:28;;;;;;;8.05;2.67;;;;;;;;;;5007693;28;20057;-69
2022/04/08 12:10:55;;;;;;;9.05;2.55;;;;;;;;;;5005502;28;20045;-69
2022/04/08 12:13:25;;;;;;;6.78;3.00;;;;;;;;;;5007014;28;20382;-69
2022/04/08 12:15:54;;;;;;;7.38;3.47;;;;;;;;;;5006834;28;20030;-70
2022/04/08 12:18:33;;;;;;;5.93;3.38;;;;;;;;;;5009811;28;20025;-69
2022/04/08 12:21:08;;;;;;;8.93;3.10;;;;;;;;;;5006486;28;20095;-69
2022/04/08 12:23:35;;;;;;;7.53;3.17;;;;;;;;;;5004407;28;20036;-70
2022/04/08 12:26:05;;;;;;;12.57;3.35;;;;;;;;;;5011131;28;20127;-69
2022/04/08 12:28:32;;;;;;;9.75;2.78;;;;;;;;;;5008073;28;20048;-78
2022/04/08 12:31:00;;;;;;;9.45;3.50;;;;;;;;;;5008445;28;20066;-70
2022/04/08 12:33:26;;;;;;;10.70;3.38;;;;;;;;;;5007209;28;20033;-69
2022/04/08 12:35:54;;;;;;;8.98;3.00;;;;;;;;;;5012104;28;20026;-71
2022/04/08 12:38:20;;;;;;;9.32;3.20;;;;;;;;;;5012922;28;20021;-75
2022/04/08 12:40:47;;;;;;;6.57;2.90;;;;;;;;;;5008600;28;20083;-73
2022/04/08 12:43:13;;;;;;;9.50;3.50;;;;;;;;;;5011074;28;20022;-70
2022/04/08 12:45:39;;;;;;;9.48;3.28;;;;;;;;;;5007659;28;20040;-70
2022/04/08 12:48:06;;;;;;;8.65;3.08;;;;;;;;;;5008586;28;20030;-76
2022/04/08 12:50:32;;;;;;;11.13;3.30;;;;;;;;;;5004438;28;20099;-71
2022/04/08 12:52:59;;;;;;;9.32;3.75;;;;;;;;;;5009359;28;20030;-72
2022/04/08 12:55:25;;;;;;;12.75;3.45;;;;;;;;;;5007161;28;20030;-75
2022/04/08 12:57:51;;;;;;;12.30;3.33;;;;;;;;;;5011327;28;20022;-72
2022/04/08 13:00:18;;;;;;;10.57;3.72;;;;;;;;;;5009113;28;20033;-73
2022/04/08 13:02:48;;;;;;;12.75;3.90;;;;;;;;;;5010374;28;20026;-85
2022/04/08 13:05:14;;;;;;;9.60;3.20;;;;;;;;;;5006101;28;20442;-73
2022/04/08 13:07:40;;;;;;;9.57;3.45;;;;;;;;;;5009421;28;20381;-74
2022/04/08 13:10:07;;;;;;;9.40;3.67;;;;;;;;;;5009643;28;20884;-75
2022/04/08 13:12:35;;;;;;;9.77;3.53;;;;;;;;;;5010090;28;20033;-74
2022/04/08 13:15:05;;;;;;;9.50;3.45;;;;;;;;;;5009554;28;20026;-73
2022/04/08 13:17:31;;;;;;;12.00;3.53;;;;;;;;;;5007461;28;20034;-73
2022/04/08 13:19:57;;;;;;;14.73;3.58;;;;;;;;;;5007289;28;20038;-72
2022/04/08 13:22:24;;;;;;;10.57;4.03;;;;;;;;;;5006327;28;20025;-82
2022/04/08 13:24:50;;;;;;;10.18;3.78;;;;;;;;;;5008522;28;20490;-80
2022/04/08 13:27:16;;;;;;;8.40;3.58;;;;;;;;;;5008333;28;20038;-77
2022/04/08 13:29:47;;;;;;;15.77;4.18;;;;;;;;;;5009093;28;20034;-72
2022/04/08 13:32:14;;;;;;;8.00;3.00;;;;;;;;;;5009153;28;20034;-75
2022/04/08 13:34:40;;;;;;;9.73;3.40;;;;;;;;;;5003136;28;20030;-79
2022/04/08 13:37:08;;;;;;;11.82;4.05;;;;;;;;;;5008462;28;20045;-74
2022/04/08 13:39:35;;;;;;;12.93;3.67;;;;;;;;;;5006879;28;20025;-74
2022/04/08 13:42:01;;;;;;;9.25;3.30;;;;;;;;;;5008848;28;20385;-72
2022/04/08 13:44:27;;;;;;;10.70;3.38;;;;;;;;;;5007095;28;20639;-72
2022/04/08 13:46:54;;;;;;;13.02;3.70;;;;;;;;;;5010391;28;20033;-72
2022/04/08 13:49:20;;;;;;;10.45;3.20;;;;;;;;;;4999238;28;20034;-72
2022/04/08 13:51:47;;;;;;;8.93;3.30;;;;;;;;;;5006096;28;20034;-72
2022/04/08 13:54:13;;;;;;;16.02;4.18;;;;;;;;;;5006571;28;20034;-73
2022/04/08 13:56:39;;;;;;;12.38;3.75;;;;;;;;;;5004954;28;20112;-72
2022/04/08 13:59:05;;;;;;;8.48;3.40;;;;;;;;;;5006227;28;20033;-71
2022/04/08 14:01:33;;;;;;;12.02;4.22;;;;;;;;;;5008442;28;20032;-75
2022/04/08 14:03:59;;;;;;;15.80;3.83;;;;;;;;;;5009679;28;20025;-72
2022/04/08 14:06:26;;;;;;;13.80;3.53;;;;;;;;;;5005536;28;20054;-72
2022/04/08 14:08:52;;;;;;;9.45;3.80;;;;;;;;;;5006161;28;20285;-72
2022/04/08 14:11:18;;;;;;;11.85;3.60;;;;;;;;;;5005237;28;20461;-72
2022/04/08 14:13:45;;;;;;;13.68;4.07;;;;;;;;;;5010148;28;20203;-72
2022/04/08 14:16:11;;;;;;;9.13;2.90;;;;;;;;;;5006308;28;20045;-72
2022/04/08 14:18:37;;;;;;;10.70;3.20;;;;;;;;;;5008851;28;20040;-72
2022/04/08 14:21:03;;;;;;;8.73;3.00;;;;;;;;;;5005643;28;20066;-72
2022/04/08 14:23:30;;;;;;;6.65;2.70;;;;;;;;;;5005215;28;20615;-74
2022/04/08 14:25:56;;;;;;;13.77;3.70;;;;;;;;;;5008843;28;20191;-72
2022/04/08 14:28:24;;;;;;;7.40;2.65;;;;;;;;;;5010218;28;20411;-80
2022/04/08 14:30:51;;;;;;;8.93;2.95;;;;;;;;;;5007069;28;20046;-70
2022/04/08 14:33:17;;;;;;;9.50;3.08;;;;;;;;;;5005130;28;20056;-70
2022/04/08 14:35:44;;;;;;;5.40;3.00;;;;;;;;;;5010401;28;20461;-67
2022/04/08 14:38:10;;;;;;;7.28;2.75;;;;;;;;;;5007094;28;20030;-67
2022/04/08 14:40:36;;;;;;;7.70;2.38;;;;;;;;;;5006879;28;20088;-68
2022/04/08 14:43:03;;;;;;;6.07;2.38;;;;;;;;;;5010742;28;20035;-68